createdAt,value
2022-08-17T00:00:43.332Z,21255.03
2022-08-17T00:03:11.725Z,21228.63
2022-08-17T00:05:48.447Z,21214.38
2022-08-17T00:08:21.213Z,21183.88
2022-08-17T00:10:51.709Z,21218.44
2022-08-17T00:13:25.694Z,21220.47
2022-08-17T00:15:59.679Z,21192.03
2022-08-17T00:19:01.132Z,21196.09
2022-08-17T00:21:23.757Z,21157.47
2022-08-17T00:23:54.869Z,21175.75
2022-08-17T00:26:34.665Z,21133.06
2022-08-17T00:29:19.451Z,21102.56
2022-08-17T00:31:48.267Z,21122.91
2022-08-17T00:34:16.391Z,21135.09
2022-08-17T00:36:46.141Z,21098.50
2022-08-17T00:39:14.240Z,21090.38
2022-08-17T00:41:42.820Z,21098.50
2022-08-17T00:44:12.212Z,21065.97
2022-08-17T00:46:43.822Z,21082.25
2022-08-17T00:49:14.144Z,21106.63
2022-08-17T00:51:49.109Z,21082.25
2022-08-17T00:54:23.370Z,21074.09
2022-08-17T00:56:58.110Z,21070.03
2022-08-17T00:59:31.826Z,21080.19
2022-08-17T01:02:02.480Z,21118.84
2022-08-17T01:04:33.369Z,21106.63
2022-08-17T01:07:06.149Z,21104.59
2022-08-17T01:09:34.980Z,21088.34
2022-08-17T01:12:03.330Z,21094.44
2022-08-17T01:14:31.603Z,21080.19
2022-08-17T01:17:01.189Z,21126.97
2022-08-17T01:19:34.270Z,21100.53
2022-08-17T01:22:18.602Z,21106.63
2022-08-17T01:24:52.094Z,21110.69
2022-08-17T01:27:22.077Z,21072.06
2022-08-17T01:29:56.831Z,21086.31
2022-08-17T01:32:25.544Z,21086.31
2022-08-17T01:34:54.523Z,21110.69
2022-08-17T01:37:35.256Z,21094.44
2022-08-17T01:40:10.382Z,21076.13
2022-08-17T01:42:45.845Z,21011.09
2022-08-17T01:45:22.985Z,21041.56
2022-08-17T01:47:51.740Z,21076.13
2022-08-17T01:50:26.925Z,21072.06
2022-08-17T01:53:00.924Z,21035.47
2022-08-17T01:55:37.797Z,21023.28
2022-08-17T01:58:09.629Z,21019.22
2022-08-17T02:00:58.189Z,21057.84
2022-08-17T02:03:27.922Z,21017.19
2022-08-17T02:05:56.643Z,21037.50
2022-08-17T02:08:36.995Z,21033.44
2022-08-17T02:11:11.890Z,21031.41
2022-08-17T02:13:40.427Z,20996.84
2022-08-17T02:16:08.592Z,20982.63
2022-08-17T02:18:36.676Z,20996.84
2022-08-17T02:21:06.960Z,21015.16
2022-08-17T02:23:41.784Z,21017.19
2022-08-17T02:26:10.480Z,20974.50
2022-08-17T02:28:53.870Z,21029.38
2022-08-17T02:31:22.217Z,20960.25
2022-08-17T02:33:56.840Z,21017.19
2022-08-17T02:36:35.027Z,21000.91
2022-08-17T02:39:07.793Z,21009.03
2022-08-17T02:41:36.569Z,21013.13
2022-08-17T02:44:06.647Z,21009.03
2022-08-17T02:46:35.159Z,21000.91
2022-08-17T02:49:03.263Z,21025.31
2022-08-17T02:51:32.075Z,21011.09
2022-08-17T02:54:02.074Z,21009.03
2022-08-17T02:56:49.638Z,20964.31
2022-08-17T02:59:17.758Z,21009.03
2022-08-17T03:01:45.982Z,20990.75
2022-08-17T03:04:14.195Z,21017.19
2022-08-17T03:06:42.304Z,20988.72
2022-08-17T03:09:10.452Z,20984.66
2022-08-17T03:11:38.522Z,20980.59
2022-08-17T03:14:07.988Z,20964.31
2022-08-17T03:16:36.194Z,20976.53
2022-08-17T03:19:04.605Z,21000.91
2022-08-17T03:21:32.728Z,20988.72
2022-08-17T03:24:00.854Z,20968.38
2022-08-17T03:26:35.371Z,20958.22
2022-08-17T03:29:03.513Z,20986.69
2022-08-17T03:31:33.388Z,20911.47
2022-08-17T03:34:05.233Z,20958.22
2022-08-17T03:36:36.078Z,20919.59
2022-08-17T03:39:04.723Z,20992.78
2022-08-17T03:41:33.088Z,20970.41
2022-08-17T03:44:01.434Z,20948.06
2022-08-17T03:46:47.240Z,20964.31
2022-08-17T03:49:34.347Z,20960.25
2022-08-17T03:52:20.045Z,20994.81
2022-08-17T03:55:05.816Z,20976.53
2022-08-17T03:57:34.086Z,20968.38
2022-08-17T04:00:02.138Z,20946.03
2022-08-17T04:02:34.018Z,20944.00
2022-08-17T04:05:03.860Z,21009.03
2022-08-17T04:07:32.800Z,20933.81
2022-08-17T04:10:01.446Z,20925.69
2022-08-17T04:12:44.431Z,20990.75
2022-08-17T04:15:13.889Z,20968.38
2022-08-17T04:17:44.168Z,21078.16
2022-08-17T04:20:15.088Z,21029.38
2022-08-17T04:22:57.894Z,21065.97
2022-08-17T04:25:27.342Z,21084.28
2022-08-17T04:27:56.611Z,21159.50
2022-08-17T04:30:24.774Z,21167.63
2022-08-17T04:33:00.810Z,21179.81
2022-08-17T04:35:39.961Z,21161.53
2022-08-17T04:38:10.253Z,21171.69
2022-08-17T04:40:56.533Z,21161.53
2022-08-17T04:43:27.497Z,21185.91
2022-08-17T04:45:58.852Z,21196.09
2022-08-17T04:48:36.120Z,21200.16
2022-08-17T04:51:14.130Z,21240.81
2022-08-17T04:53:45.726Z,21210.31
2022-08-17T04:56:22.936Z,21214.38
2022-08-17T04:58:54.049Z,21214.38
2022-08-17T05:01:26.584Z,21204.22
2022-08-17T05:03:58.974Z,21161.53
2022-08-17T05:06:30.401Z,21159.50
2022-08-17T05:09:00.315Z,21204.22
2022-08-17T05:11:30.565Z,21185.91
2022-08-17T05:14:00.346Z,21210.31
2022-08-17T05:16:29.788Z,21212.34
2022-08-17T05:18:59.181Z,21200.16
2022-08-17T05:21:28.942Z,21216.41
2022-08-17T05:23:58.433Z,21242.84
2022-08-17T05:26:29.394Z,21208.28
2022-08-17T05:29:02.491Z,21181.84
2022-08-17T05:31:32.240Z,21222.53
2022-08-17T05:34:01.478Z,21246.91
2022-08-17T05:36:42.048Z,21269.28
2022-08-17T05:39:16.124Z,21295.72
2022-08-17T05:41:48.022Z,21285.53
2022-08-17T05:44:17.276Z,21320.09
2022-08-17T05:46:54.288Z,21362.81
2022-08-17T05:49:29.447Z,21379.06
2022-08-17T05:52:18.912Z,21480.72
2022-08-17T05:55:17.260Z,21484.78
2022-08-17T05:58:00.223Z,21513.25
2022-08-17T06:00:36.695Z,21488.88
2022-08-17T06:03:30.174Z,21490.91
2022-08-17T06:06:31.519Z,21533.59
2022-08-17T06:09:25.440Z,21519.34
2022-08-17T06:12:03.762Z,21560.03
2022-08-17T06:14:59.385Z,21584.44
2022-08-17T06:17:29.420Z,21643.38
2022-08-17T06:20:04.332Z,21582.38
2022-08-17T06:22:37.297Z,21604.75
2022-08-17T06:25:16.577Z,21629.16
2022-08-17T06:27:53.683Z,21661.69
2022-08-17T06:30:27.036Z,21696.25
2022-08-17T06:33:05.700Z,21692.19
2022-08-17T06:35:42.305Z,21686.09
2022-08-17T06:38:37.386Z,21734.88
2022-08-17T06:41:20.731Z,21736.94
2022-08-17T06:44:07.284Z,21726.75
2022-08-17T06:46:39.853Z,21726.75
2022-08-17T06:49:21.996Z,21761.31
2022-08-17T06:51:58.053Z,21822.31
2022-08-17T06:54:38.952Z,21863.00
2022-08-17T06:57:18.961Z,21850.78
2022-08-17T06:59:56.344Z,21948.41
2022-08-17T07:02:51.253Z,21930.09
2022-08-17T07:05:41.335Z,22052.09
2022-08-17T07:08:19.233Z,22005.34
2022-08-17T07:10:52.504Z,22066.34
2022-08-17T07:13:51.399Z,22084.66
2022-08-17T07:16:28.656Z,22133.44
2022-08-17T07:18:59.342Z,22216.81
2022-08-17T07:21:47.371Z,22389.69
2022-08-17T07:24:33.099Z,22387.66
2022-08-17T07:27:13.479Z,22444.59
2022-08-17T07:29:50.486Z,22562.56
2022-08-17T07:32:24.955Z,22568.66
2022-08-17T07:35:11.193Z,22487.31
2022-08-17T07:37:41.835Z,22544.25
2022-08-17T07:40:35.503Z,22536.13
2022-08-17T07:43:23.049Z,22509.69
2022-08-17T07:46:34.182Z,22491.38
2022-08-17T07:49:20.613Z,22464.94
2022-08-17T07:52:24.254Z,22418.16
2022-08-17T07:54:58.557Z,22460.88
2022-08-17T07:57:36.823Z,22422.22
2022-08-17T08:00:19.504Z,22405.97
2022-08-17T08:03:26.191Z,22408.00
2022-08-17T08:06:02.103Z,22424.25
2022-08-17T08:08:38.409Z,22462.91
2022-08-17T08:11:15.184Z,22458.84
2022-08-17T08:13:45.708Z,22485.28
2022-08-17T08:16:24.359Z,22481.22
2022-08-17T08:18:58.240Z,22511.72
2022-08-17T08:21:43.812Z,22523.91
2022-08-17T08:24:31.589Z,22527.97
2022-08-17T08:27:14.110Z,22615.44
2022-08-17T08:29:54.201Z,22617.47
2022-08-17T08:32:46.488Z,22692.72
2022-08-17T08:35:30.904Z,22753.75
2022-08-17T08:38:14.778Z,22725.25
2022-08-17T08:41:14.246Z,22784.25
2022-08-17T08:43:54.764Z,22826.97
2022-08-17T08:46:36.344Z,22802.56
2022-08-17T08:50:02.532Z,22926.63
2022-08-17T08:53:04.510Z,22875.78
2022-08-17T08:55:54.224Z,22924.59
2022-08-17T08:58:41.919Z,22942.91
2022-08-17T09:01:22.056Z,22967.31
2022-08-17T09:04:26.021Z,23060.88
2022-08-17T09:07:16.170Z,23123.94
2022-08-17T09:10:00.348Z,23189.00
2022-08-17T09:12:42.617Z,23195.13
2022-08-17T09:15:18.915Z,23262.25
2022-08-17T09:18:28.410Z,23193.09
2022-08-17T09:20:55.979Z,23197.16
2022-08-17T09:23:34.671Z,23201.22
2022-08-17T09:26:12.938Z,23199.19
2022-08-17T09:28:49.110Z,23189.00
2022-08-17T09:31:23.996Z,23225.63
2022-08-17T09:33:53.765Z,23207.31
2022-08-17T09:36:32.185Z,23225.63
2022-08-17T09:39:07.206Z,23282.59
2022-08-17T09:41:48.959Z,23311.06
2022-08-17T09:44:31.898Z,23345.66
2022-08-17T09:47:11.021Z,23355.81
2022-08-17T09:49:46.417Z,23382.25
2022-08-17T09:52:22.713Z,23396.50
2022-08-17T09:54:54.325Z,23418.88
2022-08-17T09:57:47.411Z,23441.25
2022-08-17T10:00:25.099Z,23459.56
2022-08-17T10:03:28.186Z,23492.09
2022-08-17T10:06:08.271Z,23481.94
2022-08-17T10:08:51.869Z,23467.69
2022-08-17T10:11:47.601Z,23522.63
2022-08-17T10:14:37.970Z,23545.00
2022-08-17T10:17:28.482Z,23518.56
2022-08-17T10:20:10.792Z,23534.84
2022-08-17T10:23:04.516Z,23486.00
2022-08-17T10:26:09.226Z,23557.22
2022-08-17T10:28:47.751Z,23557.22
2022-08-17T10:31:34.617Z,23593.81
2022-08-17T10:34:30.412Z,23601.97
2022-08-17T10:37:46.484Z,23593.81
2022-08-17T10:40:35.853Z,23656.88
2022-08-17T10:43:24.744Z,23634.50
2022-08-17T10:46:10.692Z,23626.38
2022-08-17T10:49:25.265Z,23728.09
2022-08-17T10:51:56.450Z,23693.50
2022-08-17T10:54:47.933Z,23713.84
2022-08-17T10:57:41.825Z,23719.97
2022-08-17T11:00:15.960Z,23738.25
2022-08-17T11:02:50.818Z,23711.81
2022-08-17T11:05:54.845Z,23756.56
2022-08-17T11:08:49.045Z,23728.09
2022-08-17T11:12:06.568Z,23791.16
2022-08-17T11:15:02.297Z,23748.44
2022-08-17T11:18:03.312Z,23829.81
2022-08-17T11:21:05.115Z,23675.19
2022-08-17T11:24:08.384Z,23673.16
2022-08-17T11:26:42.174Z,23752.50
2022-08-17T11:29:25.601Z,23791.16
2022-08-17T11:32:11.182Z,23868.47
2022-08-17T11:34:43.391Z,23890.84
2022-08-17T11:37:37.266Z,23929.50
2022-08-17T11:40:26.399Z,23899.00
2022-08-17T11:43:25.666Z,23874.56
2022-08-17T11:46:18.337Z,23909.16
2022-08-17T11:49:21.214Z,23856.25
2022-08-17T11:52:15.630Z,23850.16
2022-08-17T11:54:47.961Z,23817.59
2022-08-17T11:58:01.797Z,23734.19
2022-08-17T12:00:58.320Z,23744.38
2022-08-17T12:03:54.298Z,24008.84
2022-08-17T12:06:47.716Z,24128.88
2022-08-17T12:09:24.443Z,24067.84
2022-08-17T12:12:12.933Z,24132.97
2022-08-17T12:17:41.327Z,24183.81
2022-08-17T12:20:33.298Z,24149.25
2022-08-17T12:23:13.348Z,24177.72
2022-08-17T12:25:51.318Z,24271.31
2022-08-17T12:28:30.892Z,24381.19
2022-08-17T12:31:03.336Z,24368.97
2022-08-17T12:33:32.286Z,24334.41
2022-08-17T12:36:05.864Z,24417.81
2022-08-17T12:38:38.122Z,24507.34
2022-08-17T12:41:28.778Z,24446.31
2022-08-17T12:44:02.282Z,24405.59
2022-08-17T12:46:35.719Z,24491.06
2022-08-17T12:49:17.193Z,24617.22
2022-08-17T12:51:47.799Z,24698.63
2022-08-17T12:54:35.863Z,24757.63
2022-08-17T12:57:16.732Z,24767.81
2022-08-17T12:59:51.276Z,24873.63
2022-08-17T13:02:42.760Z,24891.94
2022-08-17T13:05:23.908Z,24983.53
2022-08-17T13:07:54.521Z,25081.19
2022-08-17T13:10:32.488Z,25156.50
2022-08-17T13:13:05.847Z,25138.19
2022-08-17T13:15:44.465Z,25111.72
2022-08-17T13:18:39.922Z,25009.97
2022-08-17T13:21:22.142Z,24912.28
2022-08-17T13:24:02.978Z,24775.94
2022-08-17T13:26:38.251Z,24751.53
2022-08-17T13:29:23.800Z,24613.16
2022-08-17T13:31:56.639Z,24729.16
2022-08-17T13:35:06.512Z,24763.75
2022-08-17T13:37:33.943Z,24767.81
2022-08-17T13:40:33.433Z,24641.66
2022-08-17T13:43:03.196Z,24733.22
2022-08-17T13:45:50.388Z,24666.06
2022-08-17T13:48:26.929Z,24580.59
2022-08-17T13:51:27.793Z,24523.63
2022-08-17T13:54:29.017Z,24509.38
2022-08-17T13:57:02.243Z,24548.03
2022-08-17T13:59:54.908Z,24507.34
2022-08-17T14:02:27.960Z,24456.47
2022-08-17T14:05:00.477Z,24560.25
2022-08-17T14:07:34.595Z,24568.38
2022-08-17T14:10:08.665Z,24564.31
2022-08-17T14:12:40.069Z,24631.47
2022-08-17T14:15:10.676Z,24672.16
2022-08-17T14:17:40.178Z,24696.59
2022-08-17T14:20:13.156Z,24790.19
2022-08-17T14:22:46.200Z,24706.75
2022-08-17T14:25:17.538Z,24623.34
2022-08-17T14:27:53.601Z,24609.09
2022-08-17T14:30:25.257Z,24598.91
2022-08-17T14:32:56.371Z,24596.88
2022-08-17T14:35:27.796Z,24617.22
2022-08-17T14:37:56.358Z,24505.31
2022-08-17T14:40:25.999Z,24417.81
2022-08-17T14:42:57.613Z,24377.13
2022-08-17T14:45:29.716Z,24322.19
2022-08-17T14:48:05.486Z,24318.13
2022-08-17T14:50:35.362Z,24271.31
2022-08-17T14:53:05.361Z,24301.84
2022-08-17T14:55:34.570Z,24208.25
2022-08-17T14:58:03.887Z,24181.78
2022-08-17T15:00:32.377Z,24206.22
2022-08-17T15:03:03.262Z,24206.22
2022-08-17T15:05:35.159Z,24238.75
2022-08-17T15:08:05.434Z,24234.69
2022-08-17T15:10:34.368Z,24202.13
2022-08-17T15:13:02.673Z,24175.69
2022-08-17T15:15:31.117Z,24169.59
2022-08-17T15:18:00.453Z,24149.25
2022-08-17T15:20:31.331Z,24157.38
2022-08-17T15:23:00.106Z,24189.94
2022-08-17T15:25:31.728Z,24159.41
2022-08-17T15:28:01.189Z,24088.19
2022-08-17T15:30:31.599Z,24045.47
2022-08-17T15:33:01.803Z,24065.81
2022-08-17T15:35:34.097Z,24124.81
2022-08-17T15:38:11.153Z,24128.88
2022-08-17T15:40:44.539Z,24214.34
2022-08-17T15:43:16.065Z,24273.34
2022-08-17T15:45:58.803Z,24212.31
2022-08-17T15:48:40.661Z,24161.44
2022-08-17T15:51:14.453Z,24088.19
2022-08-17T15:53:45.451Z,24063.78
2022-08-17T15:56:15.296Z,23992.56
2022-08-17T15:58:46.577Z,23998.69
2022-08-17T16:01:44.599Z,23925.44
2022-08-17T16:04:06.931Z,23905.09
2022-08-17T16:06:55.578Z,23929.50
2022-08-17T16:09:23.660Z,24019.03
2022-08-17T16:11:53.870Z,23949.84
2022-08-17T16:14:24.281Z,23894.91
2022-08-17T16:16:53.209Z,23858.28
2022-08-17T16:19:21.226Z,23799.28
2022-08-17T16:21:49.267Z,23787.09
2022-08-17T16:24:18.616Z,23774.88
2022-08-17T16:26:46.597Z,23762.69
2022-08-17T16:29:14.619Z,23801.34
2022-08-17T16:31:43.223Z,23850.16
2022-08-17T16:34:17.240Z,23876.59
2022-08-17T16:36:54.722Z,23911.19
2022-08-17T16:39:28.779Z,23901.03
2022-08-17T16:41:58.385Z,23896.94
2022-08-17T16:44:31.758Z,23884.75
2022-08-17T16:47:01.730Z,23882.72
2022-08-17T16:49:36.621Z,23888.81
2022-08-17T16:52:07.672Z,23896.94
2022-08-17T16:54:40.564Z,23913.22
2022-08-17T16:57:08.545Z,23913.22
2022-08-17T16:59:40.993Z,23870.50
2022-08-17T17:02:14.947Z,23896.94
2022-08-17T17:04:52.672Z,23844.06
2022-08-17T17:07:53.590Z,23805.41
2022-08-17T17:10:31.696Z,23750.47
2022-08-17T17:13:03.310Z,23636.53
2022-08-17T17:15:54.943Z,23599.94
2022-08-17T17:18:37.347Z,23524.66
2022-08-17T17:21:08.171Z,23538.91
2022-08-17T17:23:47.891Z,23483.97
2022-08-17T17:26:46.205Z,23510.41
2022-08-17T17:29:47.702Z,23508.38
2022-08-17T17:32:28.985Z,23502.28
2022-08-17T17:35:09.529Z,23508.38
2022-08-17T17:37:40.909Z,23479.91
2022-08-17T17:40:19.062Z,23441.25
2022-08-17T17:42:52.738Z,23380.22
2022-08-17T17:45:26.030Z,23370.06
2022-08-17T17:47:54.647Z,23315.13
2022-08-17T17:50:43.870Z,23298.84
2022-08-17T17:53:34.843Z,23262.25
2022-08-17T17:56:19.628Z,23235.81
2022-08-17T17:59:19.495Z,23209.34
2022-08-17T18:01:59.945Z,23182.91
2022-08-17T18:04:40.289Z,23128.00
2022-08-17T18:07:23.674Z,23140.19
2022-08-17T18:10:13.761Z,23134.09
2022-08-17T18:13:12.586Z,23140.19
2022-08-17T18:15:51.014Z,23073.06
2022-08-17T18:18:38.464Z,23046.63
2022-08-17T18:21:15.808Z,23032.38
2022-08-17T18:23:57.095Z,22953.06
2022-08-17T18:26:45.152Z,22924.59
2022-08-17T18:29:39.924Z,22904.25
2022-08-17T18:32:20.280Z,22847.28
2022-08-17T18:34:53.305Z,22859.50
2022-08-17T18:37:42.655Z,22843.22
2022-08-17T18:40:37.997Z,22879.84
2022-08-17T18:43:23.970Z,22810.69
2022-08-17T18:45:55.831Z,22826.97
2022-08-17T18:48:32.968Z,22794.41
2022-08-17T18:51:21.331Z,22833.06
2022-08-17T18:54:22.077Z,22812.72
2022-08-17T18:56:54.584Z,22800.50
2022-08-17T18:59:41.014Z,22790.34
2022-08-17T19:02:45.172Z,22796.44
2022-08-17T19:05:33.782Z,22765.94
2022-08-17T19:08:33.444Z,22757.81
2022-08-17T19:11:08.418Z,22778.16
2022-08-17T19:13:43.550Z,22749.66
2022-08-17T19:16:19.738Z,22753.75
2022-08-17T19:18:57.867Z,22782.22
2022-08-17T19:21:37.364Z,22812.72
2022-08-17T19:24:12.466Z,22808.66
2022-08-17T19:26:54.075Z,22843.22
2022-08-17T19:29:34.260Z,22877.81
2022-08-17T19:32:02.894Z,22883.91
2022-08-17T19:34:36.686Z,22865.59
2022-08-17T19:37:13.638Z,22877.81
2022-08-17T19:39:56.349Z,22833.06
2022-08-17T19:42:42.427Z,22802.56
2022-08-17T19:45:24.826Z,22778.16
2022-08-17T19:48:06.825Z,22816.78
2022-08-17T19:50:45.095Z,22782.22
2022-08-17T19:53:47.771Z,22745.59
2022-08-17T19:56:31.633Z,22757.81
2022-08-17T19:59:12.802Z,22737.47
2022-08-17T20:01:52.265Z,22721.19
2022-08-17T20:04:36.637Z,22670.34
2022-08-17T20:07:11.345Z,22656.13
2022-08-17T20:09:49.256Z,22611.38
2022-08-17T20:12:25.277Z,22564.59
2022-08-17T20:14:58.551Z,22566.63
2022-08-17T20:17:32.724Z,22527.97
2022-08-17T20:20:19.963Z,22503.56
2022-08-17T20:22:59.735Z,22491.38
2022-08-17T20:25:47.110Z,22481.22
2022-08-17T20:28:28.150Z,22438.50
2022-08-17T20:30:56.915Z,22475.09
2022-08-17T20:33:29.962Z,22418.16
2022-08-17T20:36:18.594Z,22436.47
2022-08-17T20:38:52.306Z,22373.41
2022-08-17T20:41:24.706Z,22338.84
2022-08-17T20:44:06.035Z,22336.81
2022-08-17T20:46:58.959Z,22322.56
2022-08-17T20:49:49.609Z,22288.00
2022-08-17T20:52:52.944Z,22265.63
2022-08-17T20:55:55.746Z,22283.94
2022-08-17T20:58:48.298Z,22273.78
2022-08-17T21:01:34.897Z,22275.81
2022-08-17T21:04:10.438Z,22245.28
2022-08-17T21:07:28.969Z,22265.63
2022-08-17T21:10:14.257Z,22216.81
2022-08-17T21:12:47.977Z,22220.91
2022-08-17T21:15:37.417Z,22208.69
2022-08-17T21:18:18.496Z,22166.00
2022-08-17T21:21:15.359Z,22127.34
2022-08-17T21:24:09.014Z,22092.78
2022-08-17T21:26:59.790Z,22111.09
2022-08-17T21:29:33.966Z,22113.13
2022-08-17T21:32:24.466Z,22088.72
2022-08-17T21:35:30.425Z,22082.63
2022-08-17T21:38:05.173Z,22054.13
2022-08-17T21:40:36.351Z,22076.50
2022-08-17T21:43:23.463Z,22113.13
2022-08-17T21:46:26.164Z,22094.81
2022-08-17T21:48:57.206Z,22094.81
2022-08-17T21:51:30.183Z,22074.47
2022-08-17T21:54:02.423Z,22062.28
2022-08-17T21:56:36.207Z,22050.06
2022-08-17T21:59:08.397Z,21989.06
2022-08-17T22:01:40.315Z,22031.78
2022-08-17T22:04:25.313Z,22013.47
2022-08-17T22:06:57.321Z,22009.41
2022-08-17T22:09:31.500Z,22015.50
2022-08-17T22:12:11.238Z,21944.34
2022-08-17T22:14:52.326Z,21968.72
2022-08-17T22:17:25.828Z,21926.03
2022-08-17T22:19:59.121Z,21915.88
2022-08-17T22:22:33.666Z,21930.09
2022-08-17T22:25:05.824Z,21921.97
2022-08-17T22:27:54.495Z,21942.31
2022-08-17T22:30:59.150Z,21907.72
2022-08-17T22:33:39.574Z,21934.16
2022-08-17T22:36:29.014Z,21913.84
2022-08-17T22:38:59.778Z,21893.50
2022-08-17T22:41:50.731Z,21875.19
2022-08-17T22:44:29.497Z,21877.22
2022-08-17T22:47:24.670Z,21834.53
2022-08-17T22:49:57.609Z,21854.88
2022-08-17T22:52:34.442Z,21820.28
2022-08-17T22:55:26.948Z,21793.84
2022-08-17T22:58:12.910Z,21814.19
2022-08-17T23:00:45.931Z,21771.50
2022-08-17T23:03:19.602Z,21791.81
2022-08-17T23:06:04.406Z,21802.00
2022-08-17T23:08:35.649Z,21751.16
2022-08-17T23:11:06.360Z,21771.50
2022-08-17T23:13:34.506Z,21773.53
2022-08-17T23:16:04.839Z,21732.84
2022-08-17T23:18:33.016Z,21775.56
2022-08-17T23:21:01.185Z,21745.06
2022-08-17T23:23:31.278Z,21736.94
2022-08-17T23:25:59.384Z,21759.28
2022-08-17T23:28:28.489Z,21773.53
2022-08-17T23:30:56.573Z,21730.81
2022-08-17T23:33:34.336Z,21696.25
2022-08-17T23:36:02.859Z,21702.34
2022-08-17T23:38:32.888Z,21718.63
2022-08-17T23:41:05.579Z,21751.16
2022-08-17T23:43:34.404Z,21694.22
2022-08-17T23:46:03.545Z,21708.47
2022-08-17T23:48:36.743Z,21645.44
2022-08-17T23:51:12.285Z,21641.34
2022-08-17T23:53:47.280Z,21706.44
2022-08-17T23:56:17.463Z,21714.56
2022-08-17T23:58:46.287Z,21708.47
